sensor_id;sensor_type;location;lat;lon;timestamp;P1;durP1;ratioP1;P2;durP2;ratioP2
6537;SDS011;3302;52.508;13.454;2023-06-22T00:01:16;8.30;;;7.60;;
6537;SDS011;3302;52.508;13.454;2023-06-22T00:03:42;8.60;;;7.90;;
6537;SDS011;3302;52.508;13.454;2023-06-22T00:06:08;8.87;;;8.07;;
6537;SDS011;3302;52.508;13.454;2023-06-22T00:08:34;10.23;;;9.37;;
6537;SDS011;3302;52.508;13.454;2023-06-22T00:10:59;8.80;;;8.00;;
6537;SDS011;3302;52.508;13.454;2023-06-22T00:13:25;8.57;;;7.87;;
6537;SDS011;3302;52.508;13.454;2023-06-22T00:15:51;8.50;;;7.67;;
6537;SDS011;3302;52.508;13.454;2023-06-22T00:18:17;8.37;;;7.57;;
6537;SDS011;3302;52.508;13.454;2023-06-22T00:20:43;8.47;;;7.57;;
6537;SDS011;3302;52.508;13.454;2023-06-22T00:23:10;8.43;;;7.63;;
6537;SDS011;3302;52.508;13.454;2023-06-22T00:25:39;7.93;;;7.23;;
6537;SDS011;3302;52.508;13.454;2023-06-22T00:28:05;8.47;;;7.70;;
6537;SDS011;3302;52.508;13.454;2023-06-22T00:30:33;8.93;;;7.40;;
6537;SDS011;3302;52.508;13.454;2023-06-22T00:32:59;8.73;;;7.73;;
6537;SDS011;3302;52.508;13.454;2023-06-22T00:35:26;8.57;;;7.17;;
6537;SDS011;3302;52.508;13.454;2023-06-22T00:37:58;7.03;;;6.33;;
6537;SDS011;3302;52.508;13.454;2023-06-22T00:40:29;7.63;;;7.00;;
6537;SDS011;3302;52.508;13.454;2023-06-22T00:42:57;7.87;;;7.17;;
6537;SDS011;3302;52.508;13.454;2023-06-22T00:45:23;9.20;;;8.40;;
6537;SDS011;3302;52.508;13.454;2023-06-22T00:47:53;10.20;;;9.30;;
6537;SDS011;3302;52.508;13.454;2023-06-22T00:50:21;8.60;;;7.80;;
6537;SDS011;3302;52.508;13.454;2023-06-22T00:52:50;9.03;;;8.17;;
6537;SDS011;3302;52.508;13.454;2023-06-22T00:55:18;8.43;;;7.60;;
6537;SDS011;3302;52.508;13.454;2023-06-22T00:57:45;8.53;;;7.73;;
6537;SDS011;3302;52.508;13.454;2023-06-22T01:00:13;8.17;;;7.47;;
6537;SDS011;3302;52.508;13.454;2023-06-22T01:02:42;8.70;;;7.90;;
6537;SDS011;3302;52.508;13.454;2023-06-22T01:05:12;7.87;;;7.20;;
6537;SDS011;3302;52.508;13.454;2023-06-22T01:07:40;9.10;;;8.20;;
6537;SDS011;3302;52.508;13.454;2023-06-22T01:10:59;9.17;;;8.03;;
6537;SDS011;3302;52.508;13.454;2023-06-22T01:15:51;8.60;;;7.80;;
6537;SDS011;3302;52.508;13.454;2023-06-22T01:18:22;8.30;;;7.60;;
6537;SDS011;3302;52.508;13.454;2023-06-22T01:20:53;9.30;;;8.40;;
6537;SDS011;3302;52.508;13.454;2023-06-22T01:26:08;9.50;;;8.70;;
6537;SDS011;3302;52.508;13.454;2023-06-22T01:31:13;9.17;;;8.37;;
6537;SDS011;3302;52.508;13.454;2023-06-22T01:33:43;9.20;;;8.40;;
6537;SDS011;3302;52.508;13.454;2023-06-22T01:36:11;9.97;;;9.00;;
6537;SDS011;3302;52.508;13.454;2023-06-22T01:38:38;9.40;;;8.37;;
6537;SDS011;3302;52.508;13.454;2023-06-22T01:41:05;9.87;;;8.87;;
6537;SDS011;3302;52.508;13.454;2023-06-22T01:43:31;10.37;;;9.37;;
6537;SDS011;3302;52.508;13.454;2023-06-22T01:45:58;10.20;;;9.13;;
6537;SDS011;3302;52.508;13.454;2023-06-22T01:48:24;10.70;;;9.60;;
6537;SDS011;3302;52.508;13.454;2023-06-22T01:50:51;10.27;;;9.27;;
6537;SDS011;3302;52.508;13.454;2023-06-22T01:53:20;10.63;;;9.53;;
6537;SDS011;3302;52.508;13.454;2023-06-22T01:55:47;10.20;;;9.20;;
6537;SDS011;3302;52.508;13.454;2023-06-22T01:58:13;10.20;;;9.20;;
6537;SDS011;3302;52.508;13.454;2023-06-22T02:00:40;10.60;;;9.53;;
6537;SDS011;3302;52.508;13.454;2023-06-22T02:03:10;10.83;;;9.67;;
6537;SDS011;3302;52.508;13.454;2023-06-22T02:05:46;9.97;;;9.07;;
6537;SDS011;3302;52.508;13.454;2023-06-22T02:08:17;11.33;;;10.33;;
6537;SDS011;3302;52.508;13.454;2023-06-22T02:10:46;11.40;;;10.30;;
6537;SDS011;3302;52.508;13.454;2023-06-22T02:13:13;11.83;;;10.07;;
6537;SDS011;3302;52.508;13.454;2023-06-22T02:15:40;11.20;;;10.07;;
6537;SDS011;3302;52.508;13.454;2023-06-22T02:18:06;10.40;;;9.40;;
6537;SDS011;3302;52.508;13.454;2023-06-22T02:20:32;12.03;;;10.83;;
6537;SDS011;3302;52.508;13.454;2023-06-22T02:23:01;12.60;;;10.60;;
6537;SDS011;3302;52.508;13.454;2023-06-22T02:25:26;10.60;;;9.70;;
6537;SDS011;3302;52.508;13.454;2023-06-22T02:27:52;11.23;;;10.13;;
6537;SDS011;3302;52.508;13.454;2023-06-22T02:30:18;11.70;;;10.70;;
6537;SDS011;3302;52.508;13.454;2023-06-22T02:32:44;12.50;;;11.20;;
6537;SDS011;3302;52.508;13.454;2023-06-22T02:35:10;12.63;;;11.33;;
6537;SDS011;3302;52.508;13.454;2023-06-22T02:37:36;13.37;;;12.07;;
6537;SDS011;3302;52.508;13.454;2023-06-22T02:40:09;12.00;;;10.83;;
6537;SDS011;3302;52.508;13.454;2023-06-22T02:42:35;12.07;;;10.70;;
6537;SDS011;3302;52.508;13.454;2023-06-22T02:45:02;12.07;;;10.97;;
6537;SDS011;3302;52.508;13.454;2023-06-22T02:47:28;12.47;;;11.17;;
6537;SDS011;3302;52.508;13.454;2023-06-22T02:49:54;11.53;;;10.43;;
6537;SDS011;3302;52.508;13.454;2023-06-22T02:52:20;13.23;;;11.10;;
6537;SDS011;3302;52.508;13.454;2023-06-22T02:54:46;12.17;;;10.87;;
6537;SDS011;3302;52.508;13.454;2023-06-22T02:57:11;12.97;;;11.80;;
6537;SDS011;3302;52.508;13.454;2023-06-22T02:59:38;11.90;;;10.87;;
6537;SDS011;3302;52.508;13.454;2023-06-22T03:02:07;12.07;;;10.90;;
6537;SDS011;3302;52.508;13.454;2023-06-22T03:04:34;11.03;;;10.03;;
6537;SDS011;3302;52.508;13.454;2023-06-22T03:07:00;12.17;;;10.97;;
6537;SDS011;3302;52.508;13.454;2023-06-22T03:09:27;13.00;;;10.27;;
6537;SDS011;3302;52.508;13.454;2023-06-22T03:11:53;12.17;;;10.20;;
6537;SDS011;3302;52.508;13.454;2023-06-22T03:14:19;13.73;;;9.47;;
6537;SDS011;3302;52.508;13.454;2023-06-22T03:16:45;9.27;;;8.47;;
6537;SDS011;3302;52.508;13.454;2023-06-22T03:19:11;10.57;;;9.47;;
6537;SDS011;3302;52.508;13.454;2023-06-22T03:21:38;10.37;;;9.37;;
6537;SDS011;3302;52.508;13.454;2023-06-22T03:24:04;10.13;;;9.13;;
6537;SDS011;3302;52.508;13.454;2023-06-22T03:26:30;9.47;;;8.57;;
6537;SDS011;3302;52.508;13.454;2023-06-22T03:28:56;9.67;;;8.67;;
6537;SDS011;3302;52.508;13.454;2023-06-22T03:31:23;8.90;;;8.10;;
6537;SDS011;3302;52.508;13.454;2023-06-22T03:33:49;8.50;;;7.70;;
6537;SDS011;3302;52.508;13.454;2023-06-22T03:36:16;9.40;;;8.43;;
6537;SDS011;3302;52.508;13.454;2023-06-22T03:38:45;9.70;;;8.20;;
6537;SDS011;3302;52.508;13.454;2023-06-22T03:41:11;8.70;;;7.80;;
6537;SDS011;3302;52.508;13.454;2023-06-22T03:43:37;9.50;;;8.57;;
6537;SDS011;3302;52.508;13.454;2023-06-22T03:46:03;9.47;;;8.57;;
6537;SDS011;3302;52.508;13.454;2023-06-22T03:48:29;9.17;;;8.03;;
6537;SDS011;3302;52.508;13.454;2023-06-22T03:50:55;8.60;;;7.70;;
6537;SDS011;3302;52.508;13.454;2023-06-22T03:53:21;7.47;;;6.87;;
6537;SDS011;3302;52.508;13.454;2023-06-22T03:55:51;7.10;;;6.40;;
6537;SDS011;3302;52.508;13.454;2023-06-22T03:58:17;8.27;;;6.73;;
6537;SDS011;3302;52.508;13.454;2023-06-22T04:00:53;9.73;;;6.73;;
6537;SDS011;3302;52.508;13.454;2023-06-22T04:03:19;8.60;;;6.43;;
6537;SDS011;3302;52.508;13.454;2023-06-22T04:05:45;7.17;;;6.27;;
6537;SDS011;3302;52.508;13.454;2023-06-22T04:08:11;7.50;;;6.20;;
6537;SDS011;3302;52.508;13.454;2023-06-22T04:10:38;7.97;;;6.60;;
6537;SDS011;3302;52.508;13.454;2023-06-22T04:13:04;6.87;;;5.93;;
6537;SDS011;3302;52.508;13.454;2023-06-22T04:15:30;6.37;;;5.77;;
6537;SDS011;3302;52.508;13.454;2023-06-22T04:17:55;8.23;;;6.33;;
6537;SDS011;3302;52.508;13.454;2023-06-22T04:20:22;8.53;;;5.97;;
6537;SDS011;3302;52.508;13.454;2023-06-22T04:22:50;6.40;;;5.57;;
6537;SDS011;3302;52.508;13.454;2023-06-22T04:25:17;5.93;;;5.33;;
6537;SDS011;3302;52.508;13.454;2023-06-22T04:27:43;7.53;;;5.80;;
6537;SDS011;3302;52.508;13.454;2023-06-22T04:30:10;11.00;;;6.20;;
6537;SDS011;3302;52.508;13.454;2023-06-22T04:32:37;13.37;;;6.30;;
6537;SDS011;3302;52.508;13.454;2023-06-22T04:35:03;7.53;;;5.40;;
6537;SDS011;3302;52.508;13.454;2023-06-22T04:37:32;6.67;;;5.07;;
6537;SDS011;3302;52.508;13.454;2023-06-22T04:39:58;6.73;;;5.20;;
6537;SDS011;3302;52.508;13.454;2023-06-22T04:42:25;8.70;;;5.20;;
6537;SDS011;3302;52.508;13.454;2023-06-22T04:44:52;6.00;;;4.97;;
6537;SDS011;3302;52.508;13.454;2023-06-22T04:47:18;5.33;;;4.83;;
6537;SDS011;3302;52.508;13.454;2023-06-22T04:49:43;6.37;;;5.10;;
6537;SDS011;3302;52.508;13.454;2023-06-22T04:52:10;5.43;;;4.93;;
6537;SDS011;3302;52.508;13.454;2023-06-22T04:54:37;5.30;;;4.80;;
6537;SDS011;3302;52.508;13.454;2023-06-22T04:57:06;5.40;;;4.47;;
6537;SDS011;3302;52.508;13.454;2023-06-22T04:59:35;5.43;;;4.37;;
6537;SDS011;3302;52.508;13.454;2023-06-22T05:02:04;4.70;;;4.17;;
6537;SDS011;3302;52.508;13.454;2023-06-22T05:04:31;5.53;;;4.50;;
6537;SDS011;3302;52.508;13.454;2023-06-22T05:06:57;7.03;;;4.63;;
6537;SDS011;3302;52.508;13.454;2023-06-22T05:09:23;8.67;;;4.97;;
6537;SDS011;3302;52.508;13.454;2023-06-22T05:11:52;4.73;;;4.33;;
6537;SDS011;3302;52.508;13.454;2023-06-22T05:14:18;5.03;;;4.53;;
6537;SDS011;3302;52.508;13.454;2023-06-22T05:16:44;5.50;;;4.90;;
6537;SDS011;3302;52.508;13.454;2023-06-22T05:19:10;5.93;;;4.80;;
6537;SDS011;3302;52.508;13.454;2023-06-22T05:21:36;5.63;;;5.10;;
6537;SDS011;3302;52.508;13.454;2023-06-22T05:24:02;6.23;;;5.17;;
6537;SDS011;3302;52.508;13.454;2023-06-22T05:26:29;6.17;;;4.90;;
6537;SDS011;3302;52.508;13.454;2023-06-22T05:28:56;7.17;;;5.33;;
6537;SDS011;3302;52.508;13.454;2023-06-22T05:31:22;6.23;;;5.00;;
6537;SDS011;3302;52.508;13.454;2023-06-22T05:33:49;6.03;;;4.43;;
6537;SDS011;3302;52.508;13.454;2023-06-22T05:36:17;5.67;;;4.77;;
6537;SDS011;3302;52.508;13.454;2023-06-22T05:38:45;6.07;;;4.57;;
6537;SDS011;3302;52.508;13.454;2023-06-22T05:41:11;5.27;;;4.77;;
6537;SDS011;3302;52.508;13.454;2023-06-22T05:43:37;6.77;;;5.23;;
6537;SDS011;3302;52.508;13.454;2023-06-22T05:46:03;5.53;;;5.00;;
6537;SDS011;3302;52.508;13.454;2023-06-22T05:48:29;5.93;;;5.33;;
6537;SDS011;3302;52.508;13.454;2023-06-22T05:50:55;7.23;;;5.13;;
6537;SDS011;3302;52.508;13.454;2023-06-22T05:53:21;6.10;;;4.90;;
6537;SDS011;3302;52.508;13.454;2023-06-22T05:55:47;4.97;;;4.47;;
6537;SDS011;3302;52.508;13.454;2023-06-22T05:58:13;5.57;;;4.40;;
6537;SDS011;3302;52.508;13.454;2023-06-22T06:00:39;6.20;;;4.87;;
6537;SDS011;3302;52.508;13.454;2023-06-22T06:03:06;5.87;;;4.17;;
6537;SDS011;3302;52.508;13.454;2023-06-22T06:05:33;5.70;;;3.97;;
6537;SDS011;3302;52.508;13.454;2023-06-22T06:08:00;4.93;;;4.00;;
6537;SDS011;3302;52.508;13.454;2023-06-22T06:10:26;6.13;;;4.10;;
6537;SDS011;3302;52.508;13.454;2023-06-22T06:12:54;5.67;;;4.77;;
6537;SDS011;3302;52.508;13.454;2023-06-22T06:15:20;4.20;;;3.80;;
6537;SDS011;3302;52.508;13.454;2023-06-22T06:17:47;4.93;;;4.30;;
6537;SDS011;3302;52.508;13.454;2023-06-22T06:20:18;5.53;;;4.33;;
6537;SDS011;3302;52.508;13.454;2023-06-22T06:22:45;11.07;;;5.57;;
6537;SDS011;3302;52.508;13.454;2023-06-22T06:25:12;10.10;;;5.43;;
6537;SDS011;3302;52.508;13.454;2023-06-22T06:27:45;9.60;;;4.87;;
6537;SDS011;3302;52.508;13.454;2023-06-22T06:30:12;6.90;;;4.93;;
6537;SDS011;3302;52.508;13.454;2023-06-22T06:32:39;9.43;;;4.40;;
6537;SDS011;3302;52.508;13.454;2023-06-22T06:35:06;6.27;;;4.40;;
6537;SDS011;3302;52.508;13.454;2023-06-22T06:37:36;4.50;;;4.10;;
6537;SDS011;3302;52.508;13.454;2023-06-22T06:40:04;4.20;;;3.80;;
6537;SDS011;3302;52.508;13.454;2023-06-22T06:42:35;6.33;;;5.70;;
6537;SDS011;3302;52.508;13.454;2023-06-22T06:45:03;4.67;;;4.10;;
6537;SDS011;3302;52.508;13.454;2023-06-22T06:47:30;9.67;;;4.17;;
6537;SDS011;3302;52.508;13.454;2023-06-22T06:49:56;7.03;;;3.63;;
6537;SDS011;3302;52.508;13.454;2023-06-22T06:52:21;3.63;;;3.17;;
6537;SDS011;3302;52.508;13.454;2023-06-22T06:54:47;6.47;;;3.30;;
6537;SDS011;3302;52.508;13.454;2023-06-22T06:57:13;5.50;;;3.10;;
6537;SDS011;3302;52.508;13.454;2023-06-22T06:59:40;4.23;;;3.13;;
6537;SDS011;3302;52.508;13.454;2023-06-22T07:02:06;3.80;;;3.40;;
6537;SDS011;3302;52.508;13.454;2023-06-22T07:04:32;4.27;;;3.30;;
6537;SDS011;3302;52.508;13.454;2023-06-22T07:06:58;8.57;;;4.27;;
6537;SDS011;3302;52.508;13.454;2023-06-22T07:09:26;34.87;;;6.43;;
6537;SDS011;3302;52.508;13.454;2023-06-22T07:11:52;6.40;;;3.60;;
6537;SDS011;3302;52.508;13.454;2023-06-22T07:14:17;6.57;;;3.60;;
6537;SDS011;3302;52.508;13.454;2023-06-22T07:16:43;5.03;;;4.07;;
6537;SDS011;3302;52.508;13.454;2023-06-22T07:19:10;7.07;;;3.60;;
6537;SDS011;3302;52.508;13.454;2023-06-22T07:21:37;4.87;;;3.00;;
6537;SDS011;3302;52.508;13.454;2023-06-22T07:24:04;5.60;;;3.77;;
6537;SDS011;3302;52.508;13.454;2023-06-22T07:26:31;9.63;;;5.03;;
6537;SDS011;3302;52.508;13.454;2023-06-22T07:28:57;6.13;;;4.03;;
6537;SDS011;3302;52.508;13.454;2023-06-22T07:31:24;3.80;;;2.90;;
6537;SDS011;3302;52.508;13.454;2023-06-22T07:33:50;3.13;;;2.73;;
6537;SDS011;3302;52.508;13.454;2023-06-22T07:36:16;4.47;;;3.00;;
6537;SDS011;3302;52.508;13.454;2023-06-22T07:38:42;3.23;;;2.50;;
6537;SDS011;3302;52.508;13.454;2023-06-22T07:41:08;3.43;;;2.80;;
6537;SDS011;3302;52.508;13.454;2023-06-22T07:43:34;5.17;;;3.30;;
6537;SDS011;3302;52.508;13.454;2023-06-22T07:46:05;5.70;;;3.03;;
6537;SDS011;3302;52.508;13.454;2023-06-22T07:48:31;6.20;;;3.03;;
6537;SDS011;3302;52.508;13.454;2023-06-22T07:50:57;3.00;;;2.70;;
6537;SDS011;3302;52.508;13.454;2023-06-22T07:53:23;3.73;;;3.30;;
6537;SDS011;3302;52.508;13.454;2023-06-22T07:55:49;9.27;;;3.90;;
6537;SDS011;3302;52.508;13.454;2023-06-22T07:58:15;8.20;;;3.03;;
6537;SDS011;3302;52.508;13.454;2023-06-22T08:00:44;7.30;;;2.97;;
6537;SDS011;3302;52.508;13.454;2023-06-22T08:03:09;3.60;;;2.70;;
6537;SDS011;3302;52.508;13.454;2023-06-22T08:05:35;4.40;;;3.27;;
6537;SDS011;3302;52.508;13.454;2023-06-22T08:08:01;4.47;;;3.57;;
6537;SDS011;3302;52.508;13.454;2023-06-22T08:10:27;3.35;;;3.05;;
6537;SDS011;3302;52.508;13.454;2023-06-22T08:12:52;3.47;;;3.10;;
6537;SDS011;3302;52.508;13.454;2023-06-22T08:15:18;2.67;;;2.47;;
6537;SDS011;3302;52.508;13.454;2023-06-22T08:17:44;3.23;;;2.80;;
6537;SDS011;3302;52.508;13.454;2023-06-22T08:20:13;3.73;;;2.63;;
6537;SDS011;3302;52.508;13.454;2023-06-22T08:22:42;3.43;;;2.83;;
6537;SDS011;3302;52.508;13.454;2023-06-22T08:25:08;3.90;;;2.77;;
6537;SDS011;3302;52.508;13.454;2023-06-22T08:27:35;3.03;;;2.67;;
6537;SDS011;3302;52.508;13.454;2023-06-22T08:30:02;3.28;;;2.97;;
6537;SDS011;3302;52.508;13.454;2023-06-22T08:32:28;2.97;;;2.65;;
6537;SDS011;3302;52.508;13.454;2023-06-22T08:34:55;5.40;;;3.27;;
6537;SDS011;3302;52.508;13.454;2023-06-22T08:37:22;3.85;;;2.80;;
6537;SDS011;3302;52.508;13.454;2023-06-22T08:39:56;9.90;;;3.20;;
6537;SDS011;3302;52.508;13.454;2023-06-22T08:42:23;5.00;;;3.30;;
6537;SDS011;3302;52.508;13.454;2023-06-22T08:44:50;4.47;;;3.33;;
6537;SDS011;3302;52.508;13.454;2023-06-22T08:47:15;3.70;;;3.40;;
6537;SDS011;3302;52.508;13.454;2023-06-22T08:49:41;4.33;;;3.17;;
6537;SDS011;3302;52.508;13.454;2023-06-22T08:52:07;3.97;;;3.13;;
6537;SDS011;3302;52.508;13.454;2023-06-22T08:54:33;6.15;;;4.15;;
6537;SDS011;3302;52.508;13.454;2023-06-22T08:57:00;9.43;;;4.05;;
6537;SDS011;3302;52.508;13.454;2023-06-22T08:59:27;8.33;;;3.70;;
6537;SDS011;3302;52.508;13.454;2023-06-22T09:01:53;5.13;;;3.07;;
6537;SDS011;3302;52.508;13.454;2023-06-22T09:04:19;3.80;;;3.40;;
6537;SDS011;3302;52.508;13.454;2023-06-22T09:06:47;5.65;;;3.80;;
6537;SDS011;3302;52.508;13.454;2023-06-22T09:09:15;8.00;;;5.93;;
6537;SDS011;3302;52.508;13.454;2023-06-22T09:11:41;6.30;;;3.70;;
6537;SDS011;3302;52.508;13.454;2023-06-22T09:14:08;7.40;;;3.63;;
6537;SDS011;3302;52.508;13.454;2023-06-22T09:16:34;3.42;;;2.70;;
6537;SDS011;3302;52.508;13.454;2023-06-22T09:19:00;2.97;;;2.65;;
6537;SDS011;3302;52.508;13.454;2023-06-22T09:21:26;3.53;;;2.70;;
6537;SDS011;3302;52.508;13.454;2023-06-22T09:23:51;4.78;;;2.60;;
6537;SDS011;3302;52.508;13.454;2023-06-22T09:26:18;6.60;;;3.50;;
6537;SDS011;3302;52.508;13.454;2023-06-22T09:28:44;4.65;;;3.17;;
6537;SDS011;3302;52.508;13.454;2023-06-22T09:31:09;4.85;;;3.00;;
6537;SDS011;3302;52.508;13.454;2023-06-22T09:33:36;20.67;;;9.35;;
6537;SDS011;3302;52.508;13.454;2023-06-22T09:36:04;70.90;;;29.95;;
6537;SDS011;3302;52.508;13.454;2023-06-22T09:38:38;11.38;;;5.65;;
6537;SDS011;3302;52.508;13.454;2023-06-22T09:41:04;4.97;;;3.28;;
6537;SDS011;3302;52.508;13.454;2023-06-22T09:43:31;3.50;;;2.90;;
6537;SDS011;3302;52.508;13.454;2023-06-22T09:45:57;5.35;;;2.80;;
6537;SDS011;3302;52.508;13.454;2023-06-22T09:48:23;3.25;;;3.00;;
6537;SDS011;3302;52.508;13.454;2023-06-22T09:50:49;6.75;;;3.08;;
6537;SDS011;3302;52.508;13.454;2023-06-22T09:53:15;3.17;;;2.67;;
6537;SDS011;3302;52.508;13.454;2023-06-22T09:55:41;3.63;;;3.20;;
6537;SDS011;3302;52.508;13.454;2023-06-22T09:58:07;3.70;;;3.30;;
6537;SDS011;3302;52.508;13.454;2023-06-22T10:00:33;8.50;;;3.13;;
6537;SDS011;3302;52.508;13.454;2023-06-22T10:02:59;3.28;;;2.97;;
6537;SDS011;3302;52.508;13.454;2023-06-22T10:05:25;3.65;;;3.00;;
6537;SDS011;3302;52.508;13.454;2023-06-22T10:07:51;4.28;;;2.85;;
6537;SDS011;3302;52.508;13.454;2023-06-22T10:10:17;3.40;;;3.10;;
6537;SDS011;3302;52.508;13.454;2023-06-22T10:12:47;3.92;;;3.25;;
6537;SDS011;3302;52.508;13.454;2023-06-22T10:15:19;3.50;;;3.20;;
6537;SDS011;3302;52.508;13.454;2023-06-22T10:17:46;5.85;;;3.30;;
6537;SDS011;3302;52.508;13.454;2023-06-22T10:20:12;5.55;;;3.70;;
6537;SDS011;3302;52.508;13.454;2023-06-22T10:22:39;4.43;;;3.40;;
6537;SDS011;3302;52.508;13.454;2023-06-22T10:25:09;5.47;;;3.80;;
6537;SDS011;3302;52.508;13.454;2023-06-22T10:27:36;4.25;;;3.30;;
6537;SDS011;3302;52.508;13.454;2023-06-22T10:30:05;3.28;;;2.97;;
6537;SDS011;3302;52.508;13.454;2023-06-22T10:32:32;4.03;;;3.70;;
6537;SDS011;3302;52.508;13.454;2023-06-22T10:34:58;3.90;;;3.50;;
6537;SDS011;3302;52.508;13.454;2023-06-22T10:37:23;6.03;;;4.47;;
6537;SDS011;3302;52.508;13.454;2023-06-22T10:39:49;7.07;;;3.88;;
6537;SDS011;3302;52.508;13.454;2023-06-22T10:42:15;3.90;;;3.60;;
6537;SDS011;3302;52.508;13.454;2023-06-22T10:44:41;3.97;;;3.30;;
6537;SDS011;3302;52.508;13.454;2023-06-22T10:47:09;5.60;;;3.13;;
6537;SDS011;3302;52.508;13.454;2023-06-22T10:49:37;6.40;;;3.35;;
6537;SDS011;3302;52.508;13.454;2023-06-22T10:52:03;3.15;;;2.85;;
6537;SDS011;3302;52.508;13.454;2023-06-22T10:54:32;3.75;;;2.83;;
6537;SDS011;3302;52.508;13.454;2023-06-22T10:56:59;3.20;;;2.90;;
6537;SDS011;3302;52.508;13.454;2023-06-22T10:59:25;3.20;;;2.90;;
6537;SDS011;3302;52.508;13.454;2023-06-22T11:01:52;4.60;;;2.85;;
6537;SDS011;3302;52.508;13.454;2023-06-22T11:04:18;12.25;;;3.42;;
6537;SDS011;3302;52.508;13.454;2023-06-22T11:06:44;3.05;;;2.75;;
6537;SDS011;3302;52.508;13.454;2023-06-22T11:09:10;4.03;;;2.85;;
6537;SDS011;3302;52.508;13.454;2023-06-22T11:11:35;3.25;;;2.95;;
6537;SDS011;3302;52.508;13.454;2023-06-22T11:14:01;3.25;;;2.97;;
6537;SDS011;3302;52.508;13.454;2023-06-22T11:16:27;3.63;;;3.28;;
6537;SDS011;3302;52.508;13.454;2023-06-22T11:18:53;3.20;;;2.90;;
6537;SDS011;3302;52.508;13.454;2023-06-22T11:21:18;5.47;;;3.00;;
6537;SDS011;3302;52.508;13.454;2023-06-22T11:23:44;4.53;;;2.92;;
6537;SDS011;3302;52.508;13.454;2023-06-22T11:26:10;3.92;;;3.50;;
6537;SDS011;3302;52.508;13.454;2023-06-22T11:28:36;3.55;;;3.22;;
6537;SDS011;3302;52.508;13.454;2023-06-22T11:31:02;3.85;;;3.25;;
6537;SDS011;3302;52.508;13.454;2023-06-22T11:33:28;4.00;;;3.45;;
6537;SDS011;3302;52.508;13.454;2023-06-22T11:35:54;6.22;;;3.22;;
6537;SDS011;3302;52.508;13.454;2023-06-22T11:38:21;4.07;;;2.90;;
6537;SDS011;3302;52.508;13.454;2023-06-22T11:40:47;3.30;;;3.00;;
6537;SDS011;3302;52.508;13.454;2023-06-22T11:43:13;4.05;;;3.25;;
6537;SDS011;3302;52.508;13.454;2023-06-22T11:45:40;3.67;;;2.92;;
6537;SDS011;3302;52.508;13.454;2023-06-22T11:48:06;4.35;;;3.00;;
6537;SDS011;3302;52.508;13.454;2023-06-22T11:50:31;3.53;;;3.22;;
6537;SDS011;3302;52.508;13.454;2023-06-22T11:53:01;3.97;;;2.90;;
6537;SDS011;3302;52.508;13.454;2023-06-22T11:55:28;3.38;;;3.00;;
6537;SDS011;3302;52.508;13.454;2023-06-22T11:57:55;5.45;;;4.95;;
6537;SDS011;3302;52.508;13.454;2023-06-22T12:00:23;4.07;;;3.00;;
6537;SDS011;3302;52.508;13.454;2023-06-22T12:02:52;5.13;;;3.63;;
6537;SDS011;3302;52.508;13.454;2023-06-22T12:05:21;3.42;;;3.00;;
6537;SDS011;3302;52.508;13.454;2023-06-22T12:07:47;3.78;;;3.40;;
6537;SDS011;3302;52.508;13.454;2023-06-22T12:10:14;4.40;;;3.28;;
6537;SDS011;3302;52.508;13.454;2023-06-22T12:12:40;4.88;;;3.10;;
6537;SDS011;3302;52.508;13.454;2023-06-22T12:15:06;3.20;;;2.90;;
6537;SDS011;3302;52.508;13.454;2023-06-22T12:17:33;3.70;;;3.35;;
6537;SDS011;3302;52.508;13.454;2023-06-22T12:19:59;3.13;;;2.83;;
6537;SDS011;3302;52.508;13.454;2023-06-22T12:22:25;3.88;;;3.03;;
6537;SDS011;3302;52.508;13.454;2023-06-22T12:24:51;3.78;;;3.47;;
6537;SDS011;3302;52.508;13.454;2023-06-22T12:27:17;3.60;;;3.30;;
6537;SDS011;3302;52.508;13.454;2023-06-22T12:29:46;3.45;;;3.15;;
6537;SDS011;3302;52.508;13.454;2023-06-22T12:32:12;3.72;;;3.42;;
6537;SDS011;3302;52.508;13.454;2023-06-22T12:34:39;4.10;;;3.28;;
6537;SDS011;3302;52.508;13.454;2023-06-22T12:37:05;8.05;;;3.38;;
6537;SDS011;3302;52.508;13.454;2023-06-22T12:39:31;4.90;;;3.35;;
6537;SDS011;3302;52.508;13.454;2023-06-22T12:41:57;3.60;;;3.30;;
6537;SDS011;3302;52.508;13.454;2023-06-22T12:44:23;5.07;;;3.53;;
6537;SDS011;3302;52.508;13.454;2023-06-22T12:46:49;3.75;;;3.40;;
6537;SDS011;3302;52.508;13.454;2023-06-22T12:49:15;4.82;;;3.80;;
6537;SDS011;3302;52.508;13.454;2023-06-22T12:51:41;4.00;;;3.70;;
6537;SDS011;3302;52.508;13.454;2023-06-22T12:54:07;3.83;;;3.17;;
6537;SDS011;3302;52.508;13.454;2023-06-22T12:56:34;3.92;;;3.55;;
6537;SDS011;3302;52.508;13.454;2023-06-22T12:59:00;4.43;;;4.03;;
6537;SDS011;3302;52.508;13.454;2023-06-22T13:01:28;3.42;;;3.13;;
6537;SDS011;3302;52.508;13.454;2023-06-22T13:03:55;5.25;;;3.78;;
6537;SDS011;3302;52.508;13.454;2023-06-22T13:06:21;4.57;;;3.80;;
6537;SDS011;3302;52.508;13.454;2023-06-22T13:08:47;4.10;;;3.70;;
6537;SDS011;3302;52.508;13.454;2023-06-22T13:11:13;4.63;;;3.78;;
6537;SDS011;3302;52.508;13.454;2023-06-22T13:13:39;3.50;;;3.20;;
6537;SDS011;3302;52.508;13.454;2023-06-22T13:16:05;4.88;;;3.25;;
6537;SDS011;3302;52.508;13.454;2023-06-22T13:18:32;4.00;;;3.63;;
6537;SDS011;3302;52.508;13.454;2023-06-22T13:20:59;4.25;;;3.40;;
6537;SDS011;3302;52.508;13.454;2023-06-22T13:23:25;4.20;;;3.30;;
6537;SDS011;3302;52.508;13.454;2023-06-22T13:25:52;3.90;;;3.40;;
6537;SDS011;3302;52.508;13.454;2023-06-22T13:28:18;3.67;;;3.38;;
6537;SDS011;3302;52.508;13.454;2023-06-22T13:30:44;3.80;;;3.50;;
6537;SDS011;3302;52.508;13.454;2023-06-22T13:33:12;3.97;;;3.45;;
6537;SDS011;3302;52.508;13.454;2023-06-22T13:35:38;3.53;;;3.22;;
6537;SDS011;3302;52.508;13.454;2023-06-22T13:38:05;4.20;;;3.80;;
6537;SDS011;3302;52.508;13.454;2023-06-22T13:40:30;3.53;;;3.22;;
6537;SDS011;3302;52.508;13.454;2023-06-22T13:42:56;3.70;;;3.40;;
6537;SDS011;3302;52.508;13.454;2023-06-22T13:45:22;4.10;;;3.58;;
6537;SDS011;3302;52.508;13.454;2023-06-22T13:47:48;4.88;;;3.78;;
6537;SDS011;3302;52.508;13.454;2023-06-22T13:50:14;6.25;;;4.38;;
6537;SDS011;3302;52.508;13.454;2023-06-22T13:52:40;4.78;;;3.53;;
6537;SDS011;3302;52.508;13.454;2023-06-22T13:55:06;3.85;;;3.55;;
6537;SDS011;3302;52.508;13.454;2023-06-22T13:57:32;3.85;;;3.55;;
6537;SDS011;3302;52.508;13.454;2023-06-22T13:59:59;3.75;;;3.45;;
6537;SDS011;3302;52.508;13.454;2023-06-22T14:02:28;4.35;;;3.67;;
6537;SDS011;3302;52.508;13.454;2023-06-22T14:04:54;4.75;;;3.60;;
6537;SDS011;3302;52.508;13.454;2023-06-22T14:07:19;4.70;;;3.80;;
6537;SDS011;3302;52.508;13.454;2023-06-22T14:09:46;4.57;;;3.60;;
6537;SDS011;3302;52.508;13.454;2023-06-22T14:12:12;4.00;;;3.60;;
6537;SDS011;3302;52.508;13.454;2023-06-22T14:14:38;4.28;;;3.97;;
6537;SDS011;3302;52.508;13.454;2023-06-22T14:17:04;4.90;;;4.40;;
6537;SDS011;3302;52.508;13.454;2023-06-22T14:19:30;4.80;;;4.40;;
6537;SDS011;3302;52.508;13.454;2023-06-22T14:21:56;3.90;;;3.50;;
6537;SDS011;3302;52.508;13.454;2023-06-22T14:24:22;5.43;;;3.60;;
6537;SDS011;3302;52.508;13.454;2023-06-22T14:26:48;4.35;;;3.58;;
6537;SDS011;3302;52.508;13.454;2023-06-22T14:29:14;4.05;;;3.65;;
6537;SDS011;3302;52.508;13.454;2023-06-22T14:31:40;5.15;;;3.45;;
6537;SDS011;3302;52.508;13.454;2023-06-22T14:34:06;4.20;;;3.80;;
6537;SDS011;3302;52.508;13.454;2023-06-22T14:36:32;5.70;;;5.10;;
6537;SDS011;3302;52.508;13.454;2023-06-22T14:38:57;3.65;;;3.35;;
6537;SDS011;3302;52.508;13.454;2023-06-22T14:41:23;3.78;;;3.47;;
6537;SDS011;3302;52.508;13.454;2023-06-22T14:43:49;4.03;;;3.63;;
6537;SDS011;3302;52.508;13.454;2023-06-22T14:46:15;4.40;;;4.00;;
6537;SDS011;3302;52.508;13.454;2023-06-22T14:48:43;4.65;;;3.50;;
6537;SDS011;3302;52.508;13.454;2023-06-22T14:51:09;3.95;;;3.63;;
6537;SDS011;3302;52.508;13.454;2023-06-22T14:53:35;5.85;;;4.00;;
6537;SDS011;3302;52.508;13.454;2023-06-22T14:56:02;3.97;;;3.67;;
6537;SDS011;3302;52.508;13.454;2023-06-22T14:58:30;3.95;;;3.65;;
6537;SDS011;3302;52.508;13.454;2023-06-22T15:01:01;4.65;;;3.60;;
6537;SDS011;3302;52.508;13.454;2023-06-22T15:03:27;4.75;;;4.00;;